Airfield :
LOGIN :

Register | Disclaimer

   EN    FR    IT 

 










Legend :    VFR   Marginal VFR   IFR   Intensive IFR   Very Intensive IFR
Visi :
Ceiling :
>= 8 km
>= 3000ft
5 to 8 km
1000 to 3000 ft
1500m to 5 km
500 to 1000 ft
800 to 1500m
200 to 500 ft
< 800m
< 200 ft
Symbols :   Thunderstorms  Fog  Heavy snow  Heavy precipitations  Wind > 20 kt
SIGMETs :     Misc.  Thunderstorms  Icing  Turbulence  Mountain Waves  Volcanic Ashes






- Airport Elevation : 2595 ft
- IATA code : SLM


LESA - Salamanca Matacan

CURRENT METAR :
  • 140830Z 29011KT 9999 FEW020 03/01 Q1006

EXPIRED METARs :
  • 140800Z 29011KT 9999 FEW030 03/01 Q1005
  • 140730Z 29011KT 9999 FEW028 03/01 Q1005 RERA
  • 140700Z 29012KT 260V320 9999 -RA FEW017 SCT038 03/01 Q1005
  • 140630Z 29017KT 260V320 9999 -RA FEW017 SCT038 03/01 Q1005
  • 140600Z 32013KT 290V350 9999 -RA SCT025 BKN041 04/01 Q1006

TAF TAF LESA
Valid from the 14 at 06:00 until the 15 at 06:00 UTC


140500Z 1406/1506 29015KT 9999 BKN030 TX08/1414Z TN01/1506Z
TEMPO 1406/1421 25020G35KT 3000 RA BKN008
PROB40
TEMPO 1410/1420 25028G45KT 3500 SHRA SCT016TCU



MET'MAP, your aeronautical weather chart ! - Copyright ORBIFLY December 2007 - Disclaimer

ORBIFLY MET'MAP TEAM :

Programming & Development : Alexandra Zaïnal
Concept & Development : Baudouin d'Aumeries
Co-Development & Prog : Marc-Olivier Méhu
Technical & hardware support : Manuel Goepfert

Contact : metmap@orbifly.com




SOURCES & CREDITS :

   NOAA